Terminal Aerodrome Forecast
Issued by NWS

Home | Current Version | Previous Version | Text Only | Print | Product List | Glossary On
Versions: 1 2 3 4 5 6 7 8 9 10 11 12 13 14 15
000
FTUS44 KEPZ 270550
TAFLRU
TAF
KLRU 270550Z 2706/2806 30007KT P6SM SCT080 BKN150
     FM271800 14008KT P6SM VCTS SCT060CB SCT120 SCT250=

USA.gov is the U.S. government's official web portal to all federal, state and local government web resources and services.